Pagina principale
METAR-TAF:

METAR-TAF

Aeroporti :

Napoli, Italia

Aeroporto di Napoli-Capodichino

latitudine: 40-51N, longitudine: 014-18E, altezza: 88 m

Osservazione

Il bollettino è stato emesso 32 minuti fa, alle 00:20 UTC
Vento 7 kt da sud-ovest, variando fra sud e ovest/sud-ovest
Temperature 13°C
Umidità 82%
Pressione 1011 hPa
Visibilità: 6000 m
Nubi sparse ad un'altezza di 2000 ft
Nuvoloso ad un'altezza di 4000 ft
pioggia debole

METAR: LIRN 170020Z 22007KT 190V250 6000 -RA SCT020 BKN040 13/10 Q1011 NOSIG

Ora: 01:52 (00:52 UTC)

Previsione

Il bollettino è stato emesso 1 ora e 52 minuti fa, alle 23:00 UTC
Previsione valida dal 17 alle 00 UTC al 17 alle 24 UTC
Vento 15 kt da ovest
Visibilità: 8000 m
Nubi sparse ad un'altezza di 3000 ft
Evoluzione graduale
dal 17 alle 05 UTC al 17 alle 08 UTC
Vento 25 kt da ovest con raffiche fino a 35 kt

TAF: LIRN 162300Z 1700/1724 26015KT 8000 SCT030 BECMG 1705/1708 28025G35KT

Osservazioni e previsioni meteorologiche di più di 4000 aeroporti (messaggi METAR e TAF).

Le stazioni disponibili sono rappresentate dai dischi gialli e rossi sulla carta.

Puntare il mouse per vedere il nome della stazione.

Clicca sopra per visualizzare le osservazioni e previsioni meteorologiche.

Per cambiare la mappa : fare clic sui pulsanti verdi con una croce nera per ingrandire, il pulsante verde con un trattino per diminuire, o sulla freccia verde per le mappe adiacenti.


METAR-TAF: